Time;durP1;ratioP1;P1;durP2;ratioP2;P2;SDS_P1;SDS_P2;PMS_P1;PMS_P2;Temp;Humidity;BMP_temperature;BMP_pressure;BME280_temperature;BME280_humidity;BME280_pressure;Samples;Min_cycle;Max_cycle;Signal;HPM_P1;HPM_P2
2022/05/28 00:01:57;;;;;;;14.43;4.87;;;;;;;14.53;91.67;99616.16;1742130;81;21169;-83
2022/05/28 00:05:03;;;;;;;11.53;5.17;;;;;;;14.51;91.77;99614.70;1785250;80;21229;-83
2022/05/28 00:08:09;;;;;;;9.05;4.90;;;;;;;14.48;91.87;99608.25;1785501;80;21304;-83
2022/05/28 00:11:22;;;;;;;7.45;4.78;;;;;;;14.46;91.90;99602.95;1786167;80;21182;-83
2022/05/28 00:14:28;;;;;;;9.70;4.87;;;;;;;14.44;91.75;99598.17;1785847;80;21197;-82
2022/05/28 00:17:34;;;;;;;11.63;5.97;;;;;;;14.41;91.63;99600.02;1741885;81;21185;-83
2022/05/28 00:20:41;;;;;;;14.30;5.87;;;;;;;14.38;91.79;99600.44;1785368;80;21201;-83
2022/05/28 00:23:47;;;;;;;11.05;5.97;;;;;;;14.33;92.24;99603.84;1784789;80;21201;-84
2022/05/28 00:26:53;;;;;;;10.32;5.95;;;;;;;14.29;92.59;99593.48;1786249;80;21127;-83
2022/05/28 00:29:59;;;;;;;9.28;5.22;;;;;;;14.25;92.80;99597.20;1786283;80;21558;-83
2022/05/28 00:33:04;;;;;;;12.40;5.40;;;;;;;14.21;93.05;99593.72;1785581;80;21755;-83
2022/05/28 00:36:12;;;;;;;10.70;5.22;;;;;;;14.16;93.26;99591.66;1784783;80;21186;-83
2022/05/28 00:39:18;;;;;;;9.43;5.03;;;;;;;14.12;93.40;99586.80;1786380;80;21146;-82
2022/05/28 00:42:16;;;;;;;8.83;4.55;;;;;;;14.10;93.37;99585.62;1786336;80;21189;-83
2022/05/28 00:45:08;;;;;;;10.55;4.53;;;;;;;14.08;93.45;99580.05;1786391;80;21806;-83
2022/05/28 00:47:58;;;;;;;9.73;4.22;;;;;;;14.05;93.50;99578.56;1786380;80;21189;-83
2022/05/28 00:50:50;;;;;;;9.15;4.60;;;;;;;14.04;93.59;99577.72;1785893;80;21198;-83
2022/05/28 00:53:36;;;;;;;7.62;4.67;;;;;;;14.02;93.68;99574.36;1785225;80;21731;-83
2022/05/28 00:56:28;;;;;;;8.50;5.33;;;;;;;14.00;93.93;99568.21;1785019;80;21213;-83
2022/05/28 00:59:13;;;;;;;12.18;4.50;;;;;;;13.98;94.13;99571.72;1786060;80;21214;-83
2022/05/28 01:02:10;;;;;;;12.35;5.37;;;;;;;13.96;94.39;99574.36;1742275;81;21311;-82
2022/05/28 01:05:20;;;;;;;7.30;4.50;;;;;;;13.93;94.57;99570.16;1786220;80;21174;-83
2022/05/28 01:08:39;;;;;;;9.65;4.80;;;;;;;13.91;94.70;99564.01;1784864;80;21734;-83
2022/05/28 01:11:56;;;;;;;8.48;4.85;;;;;;;13.90;94.78;99568.36;1786427;80;21159;-82
2022/05/28 01:15:11;;;;;;;15.20;4.78;;;;;;;13.90;94.74;99565.08;1742169;82;21239;-83
2022/05/28 01:18:24;;;;;;;6.90;4.08;;;;;;;13.89;94.73;99564.77;1786334;80;21202;-83
2022/05/28 01:21:56;;;;;;;10.65;4.92;;;;;;;13.89;94.71;99556.52;1747801;82;21719;-83
2022/05/28 01:25:18;;;;;;;12.58;4.17;;;;;;;13.90;94.73;99557.36;1747957;82;21197;-83
2022/05/28 01:28:28;;;;;;;10.58;4.90;;;;;;;13.88;94.46;99553.47;1747868;81;21193;-83
2022/05/28 01:31:34;;;;;;;7.42;4.28;;;;;;;13.91;94.15;99556.30;1748149;82;21726;-83
2022/05/28 01:34:41;;;;;;;6.58;4.12;;;;;;;13.92;93.92;99552.48;1733449;82;21726;-82
2022/05/28 01:37:47;;;;;;;14.45;4.53;;;;;;;13.94;93.76;99560.00;1746374;81;21502;-83
2022/05/28 01:40:54;;;;;;;6.90;4.10;;;;;;;13.96;93.59;99560.08;1747755;82;21162;-83
2022/05/28 01:43:59;;;;;;;12.68;4.47;;;;;;;14.00;93.45;99557.21;1746540;81;21213;-83
2022/05/28 01:47:05;;;;;;;9.55;4.17;;;;;;;14.05;93.28;99546.41;1746625;81;21165;-82
2022/05/28 01:50:12;;;;;;;10.75;3.95;;;;;;;14.11;93.03;99550.19;1747779;82;21216;-77
2022/05/28 01:54:07;;;;;;;6.50;3.52;;;;;;;14.19;92.70;99544.98;1732548;82;21200;-78
2022/05/28 01:56:27;;;;;;;7.72;3.98;;;;;;;14.25;92.23;99544.09;1732988;82;21670;-77
2022/05/28 01:59:35;;;;;;;9.50;3.70;;;;;;;14.30;91.79;99541.03;1746446;82;21153;-78
2022/05/28 02:02:40;;;;;;;6.40;3.45;;;;;;;14.39;91.40;99535.25;1747845;81;21177;-83
2022/05/28 02:05:47;;;;;;;8.60;4.17;;;;;;;14.50;90.95;99529.94;1747564;82;21149;-82
2022/05/28 02:08:54;;;;;;;8.68;3.85;;;;;;;14.63;90.50;99529.53;1746637;81;21213;-83
2022/05/28 02:12:27;;;;;;;4.75;3.15;;;;;;;14.73;89.75;99530.75;1746445;81;21165;-83
2022/05/28 02:15:45;;;;;;;7.00;3.15;;;;;;;14.83;89.16;99526.97;1747783;82;21711;-83
2022/05/28 02:18:55;;;;;;;7.42;4.05;;;;;;;14.88;88.67;99527.67;1747907;81;21727;-83
2022/05/28 02:22:12;;;;;;;9.78;3.60;;;;;;;14.86;88.75;99521.53;1778639;80;21189;-83
2022/05/28 02:25:21;;;;;;;7.22;3.40;;;;;;;14.86;89.04;99524.28;1786233;80;21154;-83
2022/05/28 02:28:27;;;;;;;6.15;3.20;;;;;;;14.85;89.23;99522.60;1786328;80;21222;-83
2022/05/28 02:31:37;;;;;;;6.55;3.70;;;;;;;14.87;89.56;99528.75;1786274;80;21696;-83
2022/05/28 02:34:45;;;;;;;11.63;3.20;;;;;;;14.85;89.92;99525.36;1786258;80;21754;-83
2022/05/28 02:37:50;;;;;;;5.62;3.60;;;;;;;14.85;90.28;99529.48;1740919;81;21268;-83
2022/05/28 02:40:55;;;;;;;5.47;3.40;;;;;;;14.86;90.60;99524.28;1786230;80;21127;-83
2022/05/28 02:43:56;;;;;;;6.28;3.27;;;;;;;14.87;90.99;99526.00;1785129;80;21189;-83
2022/05/28 02:47:02;;;;;;;4.12;3.52;;;;;;;14.89;91.21;99530.73;1785604;80;21793;-83
2022/05/28 02:50:09;;;;;;;5.65;4.08;;;;;;;14.92;91.52;99526.70;1786335;80;21723;-83
2022/05/28 02:53:14;;;;;;;7.33;3.30;;;;;;;14.95;91.78;99531.20;1741419;81;21715;-83
2022/05/28 02:56:20;;;;;;;7.78;3.62;;;;;;;15.01;91.82;99528.95;1786059;80;21767;-83
2022/05/28 02:59:27;;;;;;;5.80;3.15;;;;;;;15.06;91.76;99534.63;1786340;80;21159;-83
2022/05/28 03:02:35;;;;;;;7.72;3.75;;;;;;;15.11;91.86;99548.27;1785969;80;21173;-83
2022/05/28 03:05:41;;;;;;;5.62;3.80;;;;;;;15.14;92.13;99558.81;1742284;82;21757;-83
2022/05/28 03:08:48;;;;;;;4.85;2.90;;;;;;;15.16;91.91;99568.56;1785778;80;21679;-83
2022/05/28 03:11:54;;;;;;;4.60;2.80;;;;;;;15.23;91.50;99569.87;1786082;80;21126;-83
2022/05/28 03:15:00;;;;;;;7.12;3.37;;;;;;;15.27;91.18;99561.47;1786245;80;21707;-83
2022/05/28 03:18:04;;;;;;;9.35;3.58;;;;;;;15.33;90.78;99577.92;1785114;80;21166;-83
2022/05/28 03:21:12;;;;;;;7.40;2.77;;;;;;;15.43;89.75;99577.45;1742198;82;21769;-83
2022/05/28 03:24:17;;;;;;;5.95;2.72;;;;;;;15.65;88.81;99578.42;1789173;80;21178;-83
2022/05/28 03:27:23;;;;;;;4.67;2.65;;;;;;;15.91;86.88;99575.41;1791292;80;21233;-83
2022/05/28 03:30:30;;;;;;;6.10;2.55;;;;;;;16.15;85.04;99590.20;1712037;84;21158;-77
2022/05/28 03:33:35;;;;;;;5.85;2.55;;;;;;;16.27;83.70;99582.81;1712125;84;21246;-77
2022/05/28 03:36:40;;;;;;;6.95;2.50;;;;;;;16.44;82.74;99591.33;1710511;84;21711;-78
2022/05/28 03:39:46;;;;;;;7.45;2.40;;;;;;;16.76;81.93;99587.02;1710425;84;21249;-77
2022/05/28 03:42:52;;;;;;;6.25;2.42;;;;;;;17.18;80.27;99587.86;1710502;84;21292;-77
2022/05/28 03:45:57;;;;;;;7.55;2.50;;;;;;;17.62;78.53;99594.76;1704284;84;21165;-77
2022/05/28 03:49:10;;;;;;;7.97;2.92;;;;;;;18.01;76.42;99588.22;1740114;82;21793;-77
2022/05/28 03:52:16;;;;;;;4.67;2.27;;;;;;;18.32;74.55;99589.73;1711772;84;22115;-77
2022/05/28 03:55:21;;;;;;;3.87;2.12;;;;;;;18.60;73.06;99586.16;1710360;84;21190;-77
2022/05/28 03:58:27;;;;;;;5.97;2.42;;;;;;;18.85;72.17;99583.63;1710623;83;21731;-77
2022/05/28 04:01:33;;;;;;;7.42;2.25;;;;;;;19.06;70.74;99587.08;1712091;84;21173;-76
2022/05/28 04:04:40;;;;;;;3.80;2.10;;;;;;;19.17;69.73;99581.71;1704361;84;21142;-77
2022/05/28 04:07:48;;;;;;;6.65;2.25;;;;;;;19.24;69.35;99583.77;1740989;82;21734;-78
2022/05/28 04:10:52;;;;;;;5.90;2.30;;;;;;;19.41;69.04;99581.85;1711893;84;21763;-77
2022/05/28 04:13:58;;;;;;;4.08;2.30;;;;;;;19.46;68.28;99576.39;1709287;84;21209;-77
2022/05/28 04:17:03;;;;;;;5.53;2.15;;;;;;;19.53;67.81;99577.62;1711829;84;21486;-77
2022/05/28 04:20:13;;;;;;;8.45;2.72;;;;;;;19.55;67.44;99574.87;1711890;84;21217;-77
2022/05/28 04:23:18;;;;;;;5.87;2.58;;;;;;;19.56;67.33;99573.77;1702808;84;21245;-77
2022/05/28 04:26:25;;;;;;;7.42;2.33;;;;;;;19.62;67.27;99581.14;1741424;82;21162;-77
2022/05/28 04:29:31;;;;;;;7.75;2.00;;;;;;;19.79;67.06;99580.27;1710798;84;21177;-77
2022/05/28 04:32:36;;;;;;;8.00;2.60;;;;;;;19.86;66.19;99586.48;1710081;84;21205;-77
2022/05/28 04:35:42;;;;;;;5.55;2.05;;;;;;;19.90;66.11;99582.95;1711931;84;21213;-77
2022/05/28 04:38:49;;;;;;;9.20;2.42;;;;;;;20.08;66.02;99587.90;1710675;84;21181;-77
2022/05/28 04:41:54;;;;;;;8.55;2.33;;;;;;;20.27;65.27;99585.66;1704123;84;21485;-77
2022/05/28 04:45:00;;;;;;;6.22;2.70;;;;;;;20.38;64.52;99587.48;1741375;82;21695;-77
2022/05/28 04:48:05;;;;;;;4.80;2.17;;;;;;;20.44;63.65;99578.12;1711147;84;21212;-77
2022/05/28 04:51:12;;;;;;;4.05;2.33;;;;;;;20.55;63.30;99582.72;1710222;84;21159;-77
2022/05/28 04:54:17;;;;;;;5.65;2.10;;;;;;;20.71;63.07;99582.92;1711501;84;21196;-83
2022/05/28 04:57:22;;;;;;;5.70;2.33;;;;;;;20.81;62.62;99576.08;1711831;84;21201;-78
2022/05/28 05:00:31;;;;;;;10.05;2.52;;;;;;;20.90;62.38;99574.52;1704265;84;21169;-77
2022/05/28 05:03:29;;;;;;;9.68;2.22;;;;;;;20.98;62.07;99578.75;1741392;82;21194;-78
2022/05/28 05:06:23;;;;;;;5.00;2.25;;;;;;;21.10;61.87;99576.10;1711979;84;21169;-83
2022/05/28 05:09:09;;;;;;;9.55;2.58;;;;;;;21.16;61.67;99572.26;1708976;84;21233;-83
2022/05/28 05:12:01;;;;;;;6.20;2.27;;;;;;;21.28;61.58;99578.22;1711861;84;21217;-83
2022/05/28 05:15:09;;;;;;;6.50;2.40;;;;;;;21.43;60.76;99579.22;1711845;84;21173;-83
2022/05/28 05:18:14;;;;;;;4.97;2.65;;;;;;;21.52;59.77;99580.13;1703500;84;21268;-83
2022/05/28 05:21:19;;;;;;;6.58;2.47;;;;;;;21.61;60.22;99585.48;1741358;82;21166;-83
2022/05/28 05:24:19;;;;;;;8.28;2.65;;;;;;;21.71;59.96;99586.11;1710713;83;21766;-83
2022/05/28 05:27:26;;;;;;;4.90;2.27;;;;;;;21.83;60.18;99592.31;1710329;82;21174;-83
2022/05/28 05:30:32;;;;;;;7.28;2.37;;;;;;;21.93;59.47;99591.84;1710687;84;21711;-83
2022/05/28 05:33:38;;;;;;;9.15;2.45;;;;;;;22.21;59.81;99600.97;1703217;84;21202;-83
2022/05/28 05:36:44;;;;;;;6.28;2.30;;;;;;;22.49;58.10;99598.84;1741470;82;21178;-83
2022/05/28 05:39:49;;;;;;;7.72;2.40;;;;;;;22.66;56.95;99601.71;1710950;84;21225;-83
2022/05/28 05:42:55;;;;;;;10.43;2.30;;;;;;;22.65;56.98;99602.00;1709832;84;21774;-83
2022/05/28 05:46:02;;;;;;;12.00;2.40;;;;;;;22.59;57.27;99601.14;1698084;84;21158;-84
2022/05/28 05:49:08;;;;;;;7.90;2.65;;;;;;;22.60;56.28;99600.02;1711879;84;21780;-83
2022/05/28 05:52:14;;;;;;;8.23;2.33;;;;;;;22.60;57.27;99604.20;1702967;84;21205;-83
2022/05/28 05:55:21;;;;;;;8.18;2.27;;;;;;;22.60;56.78;99602.81;1741047;82;21203;-84
2022/05/28 05:58:28;;;;;;;5.00;2.02;;;;;;;22.58;56.50;99596.66;1710498;83;21193;-84
2022/05/28 06:01:27;;;;;;;4.47;2.10;;;;;;;22.45;56.25;99603.59;1710659;84;21214;-84
2022/05/28 06:04:34;;;;;;;7.08;2.30;;;;;;;22.38;57.25;99608.55;1711669;84;21846;-83
2022/05/28 06:07:40;;;;;;;4.55;2.05;;;;;;;22.38;56.49;99614.13;1711546;84;21660;-84
2022/05/28 06:10:45;;;;;;;5.47;2.08;;;;;;;22.43;56.99;99611.92;1702862;84;21217;-84
2022/05/28 06:13:51;;;;;;;5.12;2.30;;;;;;;22.61;56.92;99616.19;1739925;82;21209;-84
2022/05/28 06:16:57;;;;;;;4.00;2.10;;;;;;;22.75;56.47;99609.55;1710802;84;21325;-84
2022/05/28 06:20:03;;;;;;;5.30;2.22;;;;;;;22.90;55.08;99611.86;1709640;84;21803;-84
2022/05/28 06:23:11;;;;;;;6.28;2.35;;;;;;;23.19;55.61;99603.00;1711072;84;21201;-84
2022/05/28 06:26:11;;;;;;;5.85;2.25;;;;;;;23.51;55.73;99606.94;1714876;82;21166;-84
2022/05/28 06:29:18;;;;;;;5.62;2.70;;;;;;;23.64;54.22;99602.23;1786345;80;21146;-83
2022/05/28 06:32:23;;;;;;;3.15;2.02;;;;;;;23.74;53.63;99606.97;1784986;80;21688;-84
2022/05/28 06:35:29;;;;;;;5.83;2.40;;;;;;;23.84;53.08;99610.31;1786290;80;21739;-83
2022/05/28 06:38:22;;;;;;;4.87;2.00;;;;;;;23.79;53.01;99611.16;1784950;80;21225;-84
2022/05/28 06:41:28;;;;;;;5.85;2.02;;;;;;;23.67;53.25;99610.63;1784945;80;21194;-84
2022/05/28 06:44:35;;;;;;;6.75;2.50;;;;;;;23.51;53.62;99611.69;1742335;82;21174;-84
2022/05/28 06:47:40;;;;;;;3.33;1.72;;;;;;;23.31;54.13;99608.33;1786421;80;21731;-84
2022/05/28 06:54:04;;;;;;;3.77;2.22;;;;;;;23.17;55.69;99608.86;1785025;80;21236;-84
2022/05/28 06:57:09;;;;;;;9.63;1.87;;;;;;;23.04;55.58;99601.58;1786223;80;21198;-84
2022/05/28 07:00:17;;;;;;;12.28;2.40;;;;;;;22.99;55.81;99605.19;1785757;80;21862;-84
2022/05/28 07:03:25;;;;;;;5.67;2.35;;;;;;;23.10;55.97;99596.28;1784756;80;21213;-83
2022/05/28 07:06:33;;;;;;;6.72;2.30;;;;;;;23.34;56.46;99591.88;1786238;80;21190;-83
2022/05/28 07:09:39;;;;;;;6.55;2.25;;;;;;;23.52;56.42;99580.70;1786217;80;21758;-83
2022/05/28 07:12:44;;;;;;;12.33;2.37;;;;;;;23.68;56.49;99591.35;1786465;80;21747;-84
2022/05/28 07:15:51;;;;;;;4.83;1.95;;;;;;;23.82;55.46;99586.88;1786151;80;21198;-82
2022/05/28 07:18:57;;;;;;;4.67;2.00;;;;;;;23.95;54.80;99590.48;1785059;80;21201;-82
2022/05/28 07:22:02;;;;;;;4.80;2.02;;;;;;;24.10;54.91;99591.02;1784731;80;21176;-83
2022/05/28 07:25:08;;;;;;;3.62;2.10;;;;;;;24.30;54.22;99589.28;1786162;80;21236;-83
2022/05/28 07:28:27;;;;;;;4.47;2.40;;;;;;;24.50;53.63;99589.23;1787382;80;21758;-83
2022/05/28 07:31:33;;;;;;;5.65;2.12;;;;;;;24.54;52.80;99586.14;1710601;84;21220;-82
2022/05/28 07:34:38;;;;;;;5.58;1.90;;;;;;;24.63;52.65;99580.23;1712036;84;21213;-83
2022/05/28 07:37:44;;;;;;;3.72;1.85;;;;;;;24.61;51.97;99575.50;1709680;84;21186;-83
2022/05/28 07:40:49;;;;;;;5.92;2.40;;;;;;;24.57;52.17;99584.19;1711552;84;21193;-83
2022/05/28 07:43:57;;;;;;;7.40;2.05;;;;;;;24.48;52.02;99580.30;1710921;84;21209;-83
2022/05/28 07:47:03;;;;;;;5.12;1.92;;;;;;;24.33;52.15;99569.16;1704247;84;21182;-83
2022/05/28 07:50:08;;;;;;;5.80;2.05;;;;;;;24.11;52.43;99563.34;1740016;82;21251;-83
2022/05/28 07:53:14;;;;;;;5.58;2.37;;;;;;;24.03;54.44;99566.71;1711060;84;21170;-83
2022/05/28 07:56:19;;;;;;;6.70;2.60;;;;;;;24.11;54.51;99553.57;1710315;84;21169;-83
2022/05/28 07:59:25;;;;;;;9.25;2.20;;;;;;;24.14;53.71;99559.16;1711948;84;21658;-80
2022/05/28 08:02:30;;;;;;;5.40;2.22;;;;;;;24.14;53.87;99564.19;1711645;84;21739;-77
2022/05/28 08:05:35;;;;;;;7.28;2.95;;;;;;;24.23;53.99;99558.30;1704345;84;21128;-78
2022/05/28 08:08:41;;;;;;;5.83;2.08;;;;;;;24.32;53.51;99564.67;1741234;82;21751;-83
2022/05/28 08:11:49;;;;;;;4.75;2.30;;;;;;;24.30;53.14;99558.55;1711298;84;21181;-83
2022/05/28 08:14:48;;;;;;;9.90;2.50;;;;;;;24.31;53.83;99559.64;1710333;84;21175;-83
2022/05/28 08:17:41;;;;;;;8.63;2.17;;;;;;;24.40;53.81;99554.34;1710753;83;21228;-83
2022/05/28 08:24:03;;;;;;;3.90;1.80;;;;;;;24.47;53.37;99573.88;1711512;84;21173;-83
2022/05/28 08:27:08;;;;;;;7.03;2.33;;;;;;;24.60;54.05;99581.36;1704148;84;21304;-83
2022/05/28 08:30:14;;;;;;;7.65;2.25;;;;;;;24.82;53.70;99594.97;1741660;80;21244;-83
2022/05/28 08:33:20;;;;;;;4.97;2.30;;;;;;;25.02;53.48;99586.45;1711927;84;21778;-83
2022/05/28 08:36:26;;;;;;;6.62;2.02;;;;;;;25.19;53.09;99596.73;1710383;84;21853;-83
2022/05/28 08:39:33;;;;;;;8.95;2.37;;;;;;;25.38;52.30;99593.24;1710687;84;21213;-83
2022/05/28 08:42:39;;;;;;;5.78;1.82;;;;;;;25.50;51.13;99597.89;1711058;84;21189;-84
2022/05/28 08:45:44;;;;;;;5.15;2.20;;;;;;;25.55;49.99;99593.68;1704406;84;21170;-84
2022/05/28 08:48:57;;;;;;;5.87;2.20;;;;;;;25.51;50.26;99591.75;1740234;82;21825;-84
2022/05/28 08:52:19;;;;;;;7.72;2.15;;;;;;;25.50;50.07;99586.69;1711699;84;21154;-83
2022/05/28 08:55:31;;;;;;;9.30;2.45;;;;;;;25.63;50.45;99587.99;1710613;84;21154;-83
2022/05/28 08:58:37;;;;;;;11.33;2.58;;;;;;;25.77;50.81;99585.39;1711920;84;21197;-83
2022/05/28 09:01:44;;;;;;;3.55;1.95;;;;;;;25.81;50.13;99574.70;1711908;84;21759;-83
2022/05/28 09:04:51;;;;;;;9.65;2.77;;;;;;;25.82;50.17;99583.94;1703823;84;21162;-83
2022/05/28 09:07:57;;;;;;;9.65;2.27;;;;;;;25.97;50.21;99580.98;1739356;82;21265;-83
2022/05/28 09:11:04;;;;;;;7.80;2.30;;;;;;;26.16;49.78;99579.12;1711508;84;21166;-83
2022/05/28 09:14:32;;;;;;;13.25;2.30;;;;;;;26.22;47.91;99576.52;1710157;84;21745;-83
2022/05/28 09:17:42;;;;;;;5.40;2.33;;;;;;;26.27;48.43;99580.40;1711827;84;21185;-83
2022/05/28 09:20:48;;;;;;;;;;;;;;;26.27;48.43;99580.40;1714552;84;21727;-84
2022/05/28 09:24:08;;;;;;;4.25;2.25;;;;;;;26.28;48.40;99582.06;1710922;84;20166;-83
2022/05/28 09:27:49;;;;;;;10.53;2.67;;;;;;;26.28;48.00;99575.05;1741464;82;21193;-83
2022/05/28 09:31:23;;;;;;;6.22;2.25;;;;;;;26.33;47.46;99583.41;1711539;83;21213;-83
2022/05/28 09:35:01;;;;;;;8.13;2.40;;;;;;;26.36;48.00;99585.05;1693649;83;21237;-83
2022/05/28 09:38:18;;;;;;;5.22;2.40;;;;;;;26.26;47.45;99575.36;1704427;84;21831;-83
2022/05/28 09:41:39;;;;;;;8.00;2.60;;;;;;;26.21;48.38;99573.45;1741377;82;21169;-83
2022/05/28 09:44:59;;;;;;;10.95;2.42;;;;;;;26.27;47.51;99574.22;1711996;84;21726;-83
2022/05/28 09:48:07;;;;;;;7.30;2.17;;;;;;;26.33;47.57;99577.23;1709751;84;21205;-83
2022/05/28 09:51:32;;;;;;;8.15;2.67;;;;;;;26.50;47.23;99568.38;1712117;84;21173;-83
2022/05/28 09:54:39;;;;;;;9.25;2.65;;;;;;;26.63;47.26;99574.66;1711398;84;21174;-83
2022/05/28 09:58:06;;;;;;;8.05;2.95;;;;;;;26.67;47.91;99567.29;1703973;84;21256;-83
2022/05/28 10:01:17;;;;;;;5.10;2.40;;;;;;;26.79;47.27;99564.63;1741582;82;21716;-83
2022/05/28 10:04:29;;;;;;;7.90;2.58;;;;;;;26.94;47.17;99568.05;1711997;84;21759;-83
2022/05/28 10:07:43;;;;;;;6.87;2.40;;;;;;;27.08;46.29;99565.35;1710431;84;21193;-83
2022/05/28 10:10:49;;;;;;;6.95;2.85;;;;;;;27.17;46.13;99556.52;1711993;84;21247;-83
2022/05/28 10:14:00;;;;;;;6.47;2.60;;;;;;;27.24;47.31;99554.17;1712105;84;21502;-83
2022/05/28 10:17:07;;;;;;;8.18;2.52;;;;;;;27.34;46.16;99554.58;1704504;84;21182;-83
2022/05/28 10:20:17;;;;;;;6.15;2.30;;;;;;;27.43;45.62;99557.50;1741453;82;21443;-83
2022/05/28 10:23:22;;;;;;;6.35;2.58;;;;;;;27.44;44.52;99555.80;1711986;84;21189;-83
2022/05/28 10:26:30;;;;;;;6.87;2.70;;;;;;;27.33;44.62;99552.05;1710409;84;21775;-83
2022/05/28 10:29:48;;;;;;;6.58;2.40;;;;;;;27.10;45.23;99556.08;1711934;84;21174;-83
2022/05/28 10:32:54;;;;;;;10.15;2.12;;;;;;;26.82;44.70;99549.98;1785320;80;21178;-83
2022/05/28 10:35:59;;;;;;;6.78;2.42;;;;;;;26.45;44.78;99558.63;1748650;82;21626;-83
2022/05/28 10:39:20;;;;;;;5.62;1.87;;;;;;;26.14;45.22;99556.14;1793130;80;21190;-83
2022/05/28 10:42:24;;;;;;;10.05;2.47;;;;;;;26.03;46.00;99556.00;1794953;80;21710;-83
2022/05/28 10:45:30;;;;;;;8.88;2.35;;;;;;;25.99;46.74;99555.75;1749994;82;21169;-83
2022/05/28 10:49:04;;;;;;;4.53;2.22;;;;;;;25.85;46.16;99544.97;1793547;80;21801;-83
2022/05/28 10:52:39;;;;;;;5.72;3.02;;;;;;;25.85;46.16;99544.97;1750142;81;21169;-83
2022/05/28 10:56:28;;;;;;;6.00;3.60;;;;;;;25.67;46.03;99556.31;1794077;80;21798;-83
2022/05/28 11:00:00;;;;;;;8.98;4.10;;;;;;;25.29;46.74;99553.01;1794595;80;21177;-83
2022/05/28 11:03:22;;;;;;;10.72;4.00;;;;;;;24.69;48.09;99560.06;1794027;80;21150;-83
2022/05/28 11:06:39;;;;;;;8.78;3.42;;;;;;;24.21;49.01;99560.52;1750084;82;21711;-77
2022/05/28 11:10:19;;;;;;;5.47;2.80;;;;;;;23.82;49.89;99567.89;1794813;80;21162;-83
2022/05/28 11:13:55;;;;;;;7.30;3.00;;;;;;;23.51;50.76;99566.47;1792975;80;21224;-83
2022/05/28 11:17:36;;;;;;;10.43;3.42;;;;;;;23.39;51.38;99560.35;1794553;80;21225;-83
2022/05/28 11:21:11;;;;;;;5.35;3.00;;;;;;;23.42;51.92;99554.19;1794742;80;21672;-83
2022/05/28 11:24:34;;;;;;;6.83;3.30;;;;;;;23.37;51.93;99570.94;1700692;80;21194;-82
2022/05/28 11:27:43;;;;;;;9.50;3.83;;;;;;;23.21;52.26;99558.37;1785188;78;21193;-83
2022/05/28 11:30:50;;;;;;;11.78;3.77;;;;;;;23.17;53.11;99563.39;1784950;80;21218;-83
2022/05/28 11:33:57;;;;;;;4.30;2.35;;;;;;;23.19;52.51;99563.94;1772481;80;21152;-83
2022/05/28 11:37:12;;;;;;;152.97;84.10;;;;;;;23.19;52.78;99571.75;1746785;81;21145;-83
2022/05/28 11:40:29;;;;;;;24.85;16.52;;;;;;;23.16;52.17;99578.47;1755029;81;21192;-83
2022/05/28 11:43:53;;;;;;;18.82;12.78;;;;;;;23.12;52.52;99579.56;1781630;80;21198;-83
2022/05/28 11:47:35;;;;;;;9.20;6.12;;;;;;;23.09;52.21;99572.30;1752213;82;21186;-83
2022/05/28 11:54:36;;;;;;;7.92;3.50;;;;;;;22.94;52.53;99579.53;1783277;80;21160;-83
2022/05/28 11:57:53;;;;;;;6.53;3.67;;;;;;;22.86;52.80;99570.27;1783213;80;21179;-83
2022/05/28 12:00:58;;;;;;;8.45;3.40;;;;;;;22.89;53.00;99582.87;1745791;82;21153;-83
2022/05/28 12:04:04;;;;;;;5.50;3.17;;;;;;;22.94;52.76;99584.27;1782579;80;21168;-82
2022/05/28 12:07:35;;;;;;;5.70;3.20;;;;;;;23.01;52.00;99582.06;1782898;80;21128;-83
2022/05/28 12:11:03;;;;;;;8.30;2.92;;;;;;;23.04;51.88;99573.13;1745859;82;21157;-83
2022/05/28 12:14:29;;;;;;;6.25;3.20;;;;;;;23.03;51.40;99564.48;1783138;80;21240;-84
2022/05/28 12:17:36;;;;;;;5.33;2.58;;;;;;;23.12;52.20;99578.17;1783417;80;21132;-82
2022/05/28 12:20:46;;;;;;;6.92;2.90;;;;;;;23.26;51.54;99567.88;1746438;82;21164;-83
2022/05/28 12:23:51;;;;;;;10.48;3.00;;;;;;;23.35;51.41;99574.58;1783360;80;21210;-83
2022/05/28 12:27:17;;;;;;;5.87;2.85;;;;;;;23.37;50.68;99582.09;1782678;80;21152;-83
2022/05/28 12:30:47;;;;;;;10.23;2.83;;;;;;;23.31;50.53;99572.06;1746257;82;21203;-83
2022/05/28 12:34:07;;;;;;;7.17;3.17;;;;;;;23.23;50.20;99571.20;1788927;79;21710;-83
2022/05/28 12:37:16;;;;;;;5.12;2.75;;;;;;;23.08;50.41;99563.09;1713480;84;21240;-83
2022/05/28 12:40:44;;;;;;;4.87;3.00;;;;;;;23.03;50.85;99577.60;1700399;84;21707;-82
2022/05/28 12:43:53;;;;;;;7.15;2.62;;;;;;;23.05;51.24;99578.98;1712523;84;21252;-83
2022/05/28 12:47:07;;;;;;;10.32;2.77;;;;;;;23.10;50.54;99584.59;1713530;84;21836;-83
2022/05/28 12:50:39;;;;;;;6.03;2.52;;;;;;;23.15;50.31;99592.97;1712269;83;21224;-82
2022/05/28 12:54:00;;;;;;;9.45;3.58;;;;;;;23.18;49.95;99586.81;1713022;84;21785;-77
2022/05/28 12:57:36;;;;;;;6.87;3.05;;;;;;;23.23;49.83;99593.52;1712957;84;21200;-77
2022/05/28 13:01:05;;;;;;;8.88;3.30;;;;;;;23.34;49.77;99599.41;1713522;84;21166;-77
2022/05/28 13:04:13;;;;;;;5.92;3.35;;;;;;;23.43;49.48;99608.88;1713442;84;21232;-77
2022/05/28 13:07:35;;;;;;;7.62;3.47;;;;;;;23.42;48.89;99598.84;1698551;84;22140;-77
2022/05/28 13:10:42;;;;;;;13.55;5.15;;;;;;;23.39;49.24;99597.46;1702215;83;21724;-77
2022/05/28 13:14:22;;;;;;;178.40;94.00;;;;;;;23.41;48.79;99603.59;1713514;84;21750;-77
2022/05/28 13:17:38;;;;;;;75.22;36.65;;;;;;;23.44;49.34;99605.00;1733391;83;21204;-77
2022/05/28 13:21:05;;;;;;;27.27;13.13;;;;;;;23.41;49.21;99598.00;1738693;82;21813;-77
2022/05/28 13:24:34;;;;;;;7.80;3.47;;;;;;;23.37;48.83;99587.68;1740046;82;21237;-77
2022/05/28 13:28:18;;;;;;;9.50;3.93;;;;;;;23.43;49.02;99590.21;1739799;82;21193;-77
2022/05/28 13:31:24;;;;;;;7.95;4.30;;;;;;;23.51;49.52;99597.17;1739578;82;21173;-76
2022/05/28 13:34:35;;;;;;;8.73;3.83;;;;;;;23.46;48.70;99587.41;1771365;79;21192;-77
2022/05/28 13:37:44;;;;;;;3.85;2.35;;;;;;;23.35;48.72;99587.97;1757430;81;21817;-77
2022/05/28 13:40:50;;;;;;;4.37;3.12;;;;;;;23.19;49.18;99592.67;1794591;79;21170;-77
2022/05/28 13:44:04;;;;;;;5.95;3.65;;;;;;;22.96;49.60;99583.45;1788579;80;21190;-77
2022/05/28 13:47:09;;;;;;;5.22;3.20;;;;;;;22.84;49.84;99588.40;1788129;80;21170;-77
2022/05/28 13:50:15;;;;;;;7.90;3.58;;;;;;;22.78;49.96;99594.52;1800701;79;21201;-78
2022/05/28 13:53:35;;;;;;;7.67;2.90;;;;;;;22.75;50.40;99590.05;1801839;79;21199;-78
2022/05/28 13:56:41;;;;;;;14.40;5.17;;;;;;;22.70;50.45;99598.66;1802098;79;21155;-78
2022/05/28 13:59:44;;;;;;;7.58;3.20;;;;;;;22.68;51.06;99597.28;1801814;79;21176;-77
2022/05/28 14:03:06;;;;;;;5.10;2.58;;;;;;;22.69;50.84;99598.39;1802020;79;21186;-78
2022/05/28 14:06:14;;;;;;;4.95;2.92;;;;;;;22.68;51.48;99603.69;1800447;79;21190;-84
2022/05/28 14:09:19;;;;;;;4.80;2.60;;;;;;;22.66;51.37;99612.03;1793949;79;21146;-84
2022/05/28 14:12:29;;;;;;;9.95;2.75;;;;;;;22.60;51.59;99623.72;1801473;79;21252;-76
2022/05/28 14:15:30;;;;;;;8.60;2.75;;;;;;;22.54;51.88;99622.58;1801717;79;21743;-82
2022/05/28 14:18:35;;;;;;;8.90;3.98;;;;;;;22.41;51.69;99620.56;1800917;79;21192;-76
2022/05/28 14:21:48;;;;;;;5.75;3.27;;;;;;;22.29;51.90;99621.88;1757524;81;21761;-75
2022/05/28 14:24:54;;;;;;;5.97;2.58;;;;;;;22.23;52.10;99621.58;1781107;79;21166;-76
2022/05/28 14:28:07;;;;;;;6.03;3.00;;;;;;;22.22;52.17;99623.52;1757759;80;21689;-76
2022/05/28 14:31:15;;;;;;;9.23;3.75;;;;;;;22.22;52.76;99617.12;1779233;80;21156;-77
2022/05/28 14:34:21;;;;;;;5.25;2.98;;;;;;;22.25;52.84;99620.73;1787022;80;21170;-76
2022/05/28 14:37:39;;;;;;;5.92;2.70;;;;;;;22.24;52.29;99622.69;1746011;82;21193;-77
2022/05/28 14:40:48;;;;;;;8.78;2.70;;;;;;;22.25;52.74;99616.56;1718183;83;21145;-77
2022/05/28 14:43:58;;;;;;;4.70;2.27;;;;;;;22.21;51.99;99634.39;1717949;83;21188;-77
2022/05/28 14:46:58;;;;;;;4.60;2.50;;;;;;;22.10;51.72;99642.34;1723543;82;21197;-83
2022/05/28 14:50:04;;;;;;;5.47;2.65;;;;;;;21.97;51.74;99642.23;1724388;82;21157;-83
2022/05/28 14:53:09;;;;;;;11.57;3.00;;;;;;;21.85;51.83;99645.78;1717347;83;21204;-83
2022/05/28 14:56:33;;;;;;;9.13;3.67;;;;;;;21.74;51.87;99650.97;1717893;83;21224;-83
2022/05/28 14:59:49;;;;;;;10.00;4.15;;;;;;;21.65;52.55;99654.26;1723616;82;21203;-82
2022/05/28 15:02:55;;;;;;;12.55;5.00;;;;;;;21.60;52.97;99643.09;1720597;82;21268;-84